sensor_id;sensor_type;location;lat;lon;timestamp;P1;durP1;ratioP1;P2;durP2;ratioP2
9034;SDS011;4552;43.422;24.592;2022-12-29T07:51:08;22.30;;;12.70;;
9034;SDS011;4552;43.422;24.592;2022-12-29T07:53:37;26.00;;;13.40;;
9034;SDS011;4552;43.422;24.592;2022-12-29T07:56:04;20.40;;;11.67;;
9034;SDS011;4552;43.422;24.592;2022-12-29T07:58:32;28.30;;;12.63;;
9034;SDS011;4552;43.422;24.592;2022-12-29T08:00:59;22.87;;;13.67;;
9034;SDS011;4552;43.422;24.592;2022-12-29T08:03:30;27.73;;;14.53;;
9034;SDS011;4552;43.422;24.592;2022-12-29T08:05:57;24.00;;;13.97;;
9034;SDS011;4552;43.422;24.592;2022-12-29T08:08:26;23.43;;;13.57;;
9034;SDS011;4552;43.422;24.592;2022-12-29T08:10:54;21.73;;;13.00;;
9034;SDS011;4552;43.422;24.592;2022-12-29T08:13:20;24.07;;;13.67;;
9034;SDS011;4552;43.422;24.592;2022-12-29T08:15:51;23.63;;;14.13;;
9034;SDS011;4552;43.422;24.592;2022-12-29T08:18:18;23.73;;;11.47;;
9034;SDS011;4552;43.422;24.592;2022-12-29T08:20:45;23.13;;;10.13;;
9034;SDS011;4552;43.422;24.592;2022-12-29T08:23:12;23.57;;;13.03;;
9034;SDS011;4552;43.422;24.592;2022-12-29T08:25:41;23.07;;;11.93;;
9034;SDS011;4552;43.422;24.592;2022-12-29T08:28:08;18.43;;;11.50;;
9034;SDS011;4552;43.422;24.592;2022-12-29T08:30:36;19.03;;;10.47;;
9034;SDS011;4552;43.422;24.592;2022-12-29T08:33:04;17.33;;;9.93;;
9034;SDS011;4552;43.422;24.592;2022-12-29T08:35:31;17.23;;;9.67;;
9034;SDS011;4552;43.422;24.592;2022-12-29T08:37:58;15.37;;;9.33;;
9034;SDS011;4552;43.422;24.592;2022-12-29T08:40:26;15.10;;;9.13;;
9034;SDS011;4552;43.422;24.592;2022-12-29T08:42:54;18.87;;;9.90;;
9034;SDS011;4552;43.422;24.592;2022-12-29T08:45:22;15.53;;;9.07;;
9034;SDS011;4552;43.422;24.592;2022-12-29T08:47:49;16.35;;;10.48;;
9034;SDS011;4552;43.422;24.592;2022-12-29T08:50:16;14.10;;;6.87;;
9034;SDS011;4552;43.422;24.592;2022-12-29T08:52:43;10.27;;;6.70;;
9034;SDS011;4552;43.422;24.592;2022-12-29T08:55:10;8.77;;;5.93;;
9034;SDS011;4552;43.422;24.592;2022-12-29T08:57:37;8.87;;;6.13;;
9034;SDS011;4552;43.422;24.592;2022-12-29T09:00:07;11.47;;;6.60;;
9034;SDS011;4552;43.422;24.592;2022-12-29T09:02:38;9.80;;;6.37;;
9034;SDS011;4552;43.422;24.592;2022-12-29T09:05:05;8.80;;;5.90;;
9034;SDS011;4552;43.422;24.592;2022-12-29T09:07:33;10.27;;;5.77;;
9034;SDS011;4552;43.422;24.592;2022-12-29T09:10:00;9.10;;;6.30;;
9034;SDS011;4552;43.422;24.592;2022-12-29T09:12:27;10.17;;;6.30;;
9034;SDS011;4552;43.422;24.592;2022-12-29T09:14:55;9.37;;;6.07;;
9034;SDS011;4552;43.422;24.592;2022-12-29T09:17:23;9.50;;;6.30;;
9034;SDS011;4552;43.422;24.592;2022-12-29T09:20:10;7.53;;;5.53;;
9034;SDS011;4552;43.422;24.592;2022-12-29T09:22:38;10.13;;;5.40;;
9034;SDS011;4552;43.422;24.592;2022-12-29T09:25:06;7.20;;;5.73;;
9034;SDS011;4552;43.422;24.592;2022-12-29T09:27:34;9.60;;;5.77;;
9034;SDS011;4552;43.422;24.592;2022-12-29T09:30:01;10.30;;;6.27;;
9034;SDS011;4552;43.422;24.592;2022-12-29T09:32:32;8.67;;;6.27;;
9034;SDS011;4552;43.422;24.592;2022-12-29T09:35:03;11.57;;;6.87;;
9034;SDS011;4552;43.422;24.592;2022-12-29T09:37:32;9.17;;;6.13;;
9034;SDS011;4552;43.422;24.592;2022-12-29T09:40:00;12.33;;;7.00;;
9034;SDS011;4552;43.422;24.592;2022-12-29T09:42:27;11.03;;;6.77;;
9034;SDS011;4552;43.422;24.592;2022-12-29T09:45:04;9.80;;;6.63;;
9034;SDS011;4552;43.422;24.592;2022-12-29T09:47:38;12.33;;;7.50;;
9034;SDS011;4552;43.422;24.592;2022-12-29T09:50:09;9.53;;;5.87;;
9034;SDS011;4552;43.422;24.592;2022-12-29T09:52:46;12.60;;;6.27;;
9034;SDS011;4552;43.422;24.592;2022-12-29T09:55:19;11.47;;;7.37;;
9034;SDS011;4552;43.422;24.592;2022-12-29T09:57:49;9.50;;;6.57;;
9034;SDS011;4552;43.422;24.592;2022-12-29T10:00:33;9.07;;;6.53;;
9034;SDS011;4552;43.422;24.592;2022-12-29T10:03:09;10.90;;;6.83;;
9034;SDS011;4552;43.422;24.592;2022-12-29T10:05:46;10.67;;;6.73;;
9034;SDS011;4552;43.422;24.592;2022-12-29T10:08:24;9.47;;;6.40;;
9034;SDS011;4552;43.422;24.592;2022-12-29T10:10:59;9.57;;;6.43;;
9034;SDS011;4552;43.422;24.592;2022-12-29T10:13:41;12.90;;;7.13;;
9034;SDS011;4552;43.422;24.592;2022-12-29T10:16:23;10.83;;;6.97;;
9034;SDS011;4552;43.422;24.592;2022-12-29T10:19:12;14.45;;;8.80;;
9034;SDS011;4552;43.422;24.592;2022-12-29T10:21:57;9.03;;;6.47;;
9034;SDS011;4552;43.422;24.592;2022-12-29T10:24:37;11.30;;;7.10;;
9034;SDS011;4552;43.422;24.592;2022-12-29T10:27:09;10.47;;;7.37;;
9034;SDS011;4552;43.422;24.592;2022-12-29T10:29:41;13.37;;;7.37;;
9034;SDS011;4552;43.422;24.592;2022-12-29T10:32:15;15.27;;;8.07;;
9034;SDS011;4552;43.422;24.592;2022-12-29T10:34:55;12.27;;;7.80;;
9034;SDS011;4552;43.422;24.592;2022-12-29T10:37:30;11.87;;;7.73;;
9034;SDS011;4552;43.422;24.592;2022-12-29T10:40:12;12.60;;;7.77;;
9034;SDS011;4552;43.422;24.592;2022-12-29T10:42:46;12.90;;;8.10;;
9034;SDS011;4552;43.422;24.592;2022-12-29T10:45:17;11.50;;;8.13;;
9034;SDS011;4552;43.422;24.592;2022-12-29T10:47:51;14.63;;;8.03;;
9034;SDS011;4552;43.422;24.592;2022-12-29T10:50:24;12.13;;;7.07;;
9034;SDS011;4552;43.422;24.592;2022-12-29T10:52:52;11.33;;;7.40;;
9034;SDS011;4552;43.422;24.592;2022-12-29T10:55:22;13.87;;;8.47;;
9034;SDS011;4552;43.422;24.592;2022-12-29T10:57:54;13.20;;;7.10;;
9034;SDS011;4552;43.422;24.592;2022-12-29T11:00:27;10.13;;;7.07;;
9034;SDS011;4552;43.422;24.592;2022-12-29T11:05:57;10.00;;;6.77;;
9034;SDS011;4552;43.422;24.592;2022-12-29T11:08:33;10.90;;;6.83;;
9034;SDS011;4552;43.422;24.592;2022-12-29T11:11:03;9.67;;;6.90;;
9034;SDS011;4552;43.422;24.592;2022-12-29T11:13:32;11.07;;;7.17;;
9034;SDS011;4552;43.422;24.592;2022-12-29T11:16:01;10.97;;;6.83;;
9034;SDS011;4552;43.422;24.592;2022-12-29T11:18:32;10.20;;;6.27;;
9034;SDS011;4552;43.422;24.592;2022-12-29T11:21:04;12.73;;;7.17;;
9034;SDS011;4552;43.422;24.592;2022-12-29T11:23:34;10.00;;;6.63;;
9034;SDS011;4552;43.422;24.592;2022-12-29T11:26:16;11.43;;;7.17;;
9034;SDS011;4552;43.422;24.592;2022-12-29T11:28:46;13.83;;;8.73;;
9034;SDS011;4552;43.422;24.592;2022-12-29T11:31:17;11.57;;;8.30;;
9034;SDS011;4552;43.422;24.592;2022-12-29T11:33:48;13.50;;;9.18;;
9034;SDS011;4552;43.422;24.592;2022-12-29T11:36:17;12.53;;;7.83;;
9034;SDS011;4552;43.422;24.592;2022-12-29T11:38:49;12.97;;;7.40;;
9034;SDS011;4552;43.422;24.592;2022-12-29T11:41:20;12.00;;;7.80;;
9034;SDS011;4552;43.422;24.592;2022-12-29T11:43:49;12.20;;;6.73;;
9034;SDS011;4552;43.422;24.592;2022-12-29T11:46:20;11.67;;;8.37;;
9034;SDS011;4552;43.422;24.592;2022-12-29T11:48:49;12.23;;;8.33;;
9034;SDS011;4552;43.422;24.592;2022-12-29T11:51:25;12.70;;;7.83;;
9034;SDS011;4552;43.422;24.592;2022-12-29T11:53:55;12.33;;;7.67;;
9034;SDS011;4552;43.422;24.592;2022-12-29T11:56:32;10.57;;;7.50;;
9034;SDS011;4552;43.422;24.592;2022-12-29T11:59:21;10.07;;;7.07;;
9034;SDS011;4552;43.422;24.592;2022-12-29T12:02:03;13.03;;;7.47;;
9034;SDS011;4552;43.422;24.592;2022-12-29T12:04:58;11.87;;;8.07;;
9034;SDS011;4552;43.422;24.592;2022-12-29T12:07:36;11.47;;;7.90;;
9034;SDS011;4552;43.422;24.592;2022-12-29T12:10:08;10.93;;;7.73;;
9034;SDS011;4552;43.422;24.592;2022-12-29T12:12:52;15.73;;;9.00;;
9034;SDS011;4552;43.422;24.592;2022-12-29T12:15:25;11.50;;;8.50;;
9034;SDS011;4552;43.422;24.592;2022-12-29T12:18:00;11.57;;;7.97;;
9034;SDS011;4552;43.422;24.592;2022-12-29T12:20:36;13.70;;;8.53;;
9034;SDS011;4552;43.422;24.592;2022-12-29T12:23:22;13.87;;;8.00;;
9034;SDS011;4552;43.422;24.592;2022-12-29T12:25:56;13.27;;;8.57;;
9034;SDS011;4552;43.422;24.592;2022-12-29T12:28:33;9.80;;;7.20;;
9034;SDS011;4552;43.422;24.592;2022-12-29T12:31:05;12.63;;;8.27;;
9034;SDS011;4552;43.422;24.592;2022-12-29T12:33:38;14.30;;;8.87;;
9034;SDS011;4552;43.422;24.592;2022-12-29T12:36:16;15.27;;;8.63;;
9034;SDS011;4552;43.422;24.592;2022-12-29T12:38:56;14.20;;;8.57;;
9034;SDS011;4552;43.422;24.592;2022-12-29T12:41:32;12.70;;;8.70;;
9034;SDS011;4552;43.422;24.592;2022-12-29T12:44:10;12.07;;;8.40;;
9034;SDS011;4552;43.422;24.592;2022-12-29T12:46:51;13.77;;;8.07;;
9034;SDS011;4552;43.422;24.592;2022-12-29T12:49:40;13.87;;;8.53;;
9034;SDS011;4552;43.422;24.592;2022-12-29T12:52:38;12.27;;;7.23;;
9034;SDS011;4552;43.422;24.592;2022-12-29T12:55:27;13.33;;;7.47;;
9034;SDS011;4552;43.422;24.592;2022-12-29T12:58:08;11.93;;;7.57;;
9034;SDS011;4552;43.422;24.592;2022-12-29T13:00:47;9.83;;;6.30;;
9034;SDS011;4552;43.422;24.592;2022-12-29T13:03:27;11.43;;;7.57;;
9034;SDS011;4552;43.422;24.592;2022-12-29T13:06:09;10.37;;;7.67;;
9034;SDS011;4552;43.422;24.592;2022-12-29T13:08:50;13.27;;;7.47;;
9034;SDS011;4552;43.422;24.592;2022-12-29T13:11:41;13.63;;;7.83;;
9034;SDS011;4552;43.422;24.592;2022-12-29T13:14:22;12.67;;;7.57;;
9034;SDS011;4552;43.422;24.592;2022-12-29T13:16:57;11.50;;;7.00;;
9034;SDS011;4552;43.422;24.592;2022-12-29T13:19:38;11.33;;;7.03;;
9034;SDS011;4552;43.422;24.592;2022-12-29T13:22:13;13.47;;;7.30;;
9034;SDS011;4552;43.422;24.592;2022-12-29T13:24:50;10.67;;;6.67;;
9034;SDS011;4552;43.422;24.592;2022-12-29T13:30:57;11.07;;;7.23;;
9034;SDS011;4552;43.422;24.592;2022-12-29T13:33:34;12.30;;;6.73;;
9034;SDS011;4552;43.422;24.592;2022-12-29T13:36:09;9.90;;;6.80;;
9034;SDS011;4552;43.422;24.592;2022-12-29T13:38:40;10.87;;;7.07;;
9034;SDS011;4552;43.422;24.592;2022-12-29T13:41:13;16.17;;;7.27;;
9034;SDS011;4552;43.422;24.592;2022-12-29T13:43:46;10.73;;;8.03;;
9034;SDS011;4552;43.422;24.592;2022-12-29T13:46:18;11.50;;;6.83;;
9034;SDS011;4552;43.422;24.592;2022-12-29T13:48:51;10.43;;;6.37;;
9034;SDS011;4552;43.422;24.592;2022-12-29T13:51:21;11.03;;;7.17;;
9034;SDS011;4552;43.422;24.592;2022-12-29T13:54:11;12.40;;;7.93;;
9034;SDS011;4552;43.422;24.592;2022-12-29T13:56:47;10.77;;;7.60;;
9034;SDS011;4552;43.422;24.592;2022-12-29T13:59:22;11.83;;;7.53;;
9034;SDS011;4552;43.422;24.592;2022-12-29T14:02:03;11.47;;;8.23;;
9034;SDS011;4552;43.422;24.592;2022-12-29T14:04:55;11.07;;;8.07;;
9034;SDS011;4552;43.422;24.592;2022-12-29T14:07:23;12.13;;;8.07;;
9034;SDS011;4552;43.422;24.592;2022-12-29T14:09:51;15.60;;;8.10;;
9034;SDS011;4552;43.422;24.592;2022-12-29T14:12:20;13.27;;;8.13;;
9034;SDS011;4552;43.422;24.592;2022-12-29T14:15:03;13.40;;;8.37;;
9034;SDS011;4552;43.422;24.592;2022-12-29T14:17:33;11.97;;;7.83;;
9034;SDS011;4552;43.422;24.592;2022-12-29T14:20:00;13.33;;;8.10;;
9034;SDS011;4552;43.422;24.592;2022-12-29T14:22:29;11.77;;;7.47;;
9034;SDS011;4552;43.422;24.592;2022-12-29T14:24:56;12.88;;;8.23;;
9034;SDS011;4552;43.422;24.592;2022-12-29T14:27:43;11.10;;;7.77;;
9034;SDS011;4552;43.422;24.592;2022-12-29T14:33:16;12.70;;;7.27;;
9034;SDS011;4552;43.422;24.592;2022-12-29T14:35:45;18.13;;;7.97;;
9034;SDS011;4552;43.422;24.592;2022-12-29T14:38:15;10.30;;;7.00;;
9034;SDS011;4552;43.422;24.592;2022-12-29T14:40:45;11.40;;;7.53;;
9034;SDS011;4552;43.422;24.592;2022-12-29T14:43:27;10.87;;;6.80;;
9034;SDS011;4552;43.422;24.592;2022-12-29T14:45:59;10.10;;;6.87;;
9034;SDS011;4552;43.422;24.592;2022-12-29T14:48:38;11.93;;;7.50;;
9034;SDS011;4552;43.422;24.592;2022-12-29T14:51:18;12.73;;;7.30;;
9034;SDS011;4552;43.422;24.592;2022-12-29T14:53:47;10.53;;;7.17;;
9034;SDS011;4552;43.422;24.592;2022-12-29T14:56:16;13.73;;;8.27;;
9034;SDS011;4552;43.422;24.592;2022-12-29T14:58:49;13.47;;;8.07;;
9034;SDS011;4552;43.422;24.592;2022-12-29T15:01:22;15.83;;;8.20;;
9034;SDS011;4552;43.422;24.592;2022-12-29T15:03:54;12.93;;;8.13;;
9034;SDS011;4552;43.422;24.592;2022-12-29T15:06:24;12.27;;;7.93;;
9034;SDS011;4552;43.422;24.592;2022-12-29T15:08:55;18.83;;;9.07;;
9034;SDS011;4552;43.422;24.592;2022-12-29T15:11:32;10.03;;;7.00;;
9034;SDS011;4552;43.422;24.592;2022-12-29T15:17:00;10.07;;;7.13;;
9034;SDS011;4552;43.422;24.592;2022-12-29T15:19:27;10.97;;;6.80;;
9034;SDS011;4552;43.422;24.592;2022-12-29T15:21:55;12.63;;;7.83;;
9034;SDS011;4552;43.422;24.592;2022-12-29T15:24:23;22.93;;;13.23;;
9034;SDS011;4552;43.422;24.592;2022-12-29T15:26:51;14.80;;;8.77;;
9034;SDS011;4552;43.422;24.592;2022-12-29T15:29:30;12.27;;;7.87;;
9034;SDS011;4552;43.422;24.592;2022-12-29T15:32:09;13.43;;;8.37;;
9034;SDS011;4552;43.422;24.592;2022-12-29T15:34:43;15.80;;;9.10;;
9034;SDS011;4552;43.422;24.592;2022-12-29T15:37:26;13.33;;;8.67;;
9034;SDS011;4552;43.422;24.592;2022-12-29T15:39:54;15.43;;;8.93;;
9034;SDS011;4552;43.422;24.592;2022-12-29T15:42:34;15.23;;;8.50;;
9034;SDS011;4552;43.422;24.592;2022-12-29T15:45:15;13.20;;;8.87;;
9034;SDS011;4552;43.422;24.592;2022-12-29T15:47:47;12.53;;;8.47;;
9034;SDS011;4552;43.422;24.592;2022-12-29T15:50:21;12.40;;;8.17;;
9034;SDS011;4552;43.422;24.592;2022-12-29T15:52:50;20.70;;;9.43;;
9034;SDS011;4552;43.422;24.592;2022-12-29T15:55:19;14.63;;;9.60;;
9034;SDS011;4552;43.422;24.592;2022-12-29T15:57:51;20.50;;;9.97;;
9034;SDS011;4552;43.422;24.592;2022-12-29T16:00:23;19.03;;;9.70;;
9034;SDS011;4552;43.422;24.592;2022-12-29T16:02:59;18.07;;;10.30;;
9034;SDS011;4552;43.422;24.592;2022-12-29T16:05:31;17.07;;;10.67;;
9034;SDS011;4552;43.422;24.592;2022-12-29T16:07:59;14.90;;;9.00;;
9034;SDS011;4552;43.422;24.592;2022-12-29T16:10:29;16.13;;;8.77;;
9034;SDS011;4552;43.422;24.592;2022-12-29T16:13:01;17.37;;;9.87;;
9034;SDS011;4552;43.422;24.592;2022-12-29T16:15:33;20.53;;;10.50;;
9034;SDS011;4552;43.422;24.592;2022-12-29T16:18:02;18.23;;;11.13;;
9034;SDS011;4552;43.422;24.592;2022-12-29T16:20:33;19.67;;;10.33;;
9034;SDS011;4552;43.422;24.592;2022-12-29T16:23:08;19.23;;;11.27;;
9034;SDS011;4552;43.422;24.592;2022-12-29T16:25:45;20.07;;;11.47;;
9034;SDS011;4552;43.422;24.592;2022-12-29T16:28:17;19.70;;;11.13;;
9034;SDS011;4552;43.422;24.592;2022-12-29T16:30:47;22.27;;;12.30;;
9034;SDS011;4552;43.422;24.592;2022-12-29T16:33:32;20.57;;;12.87;;
9034;SDS011;4552;43.422;24.592;2022-12-29T16:38:51;21.73;;;11.77;;
9034;SDS011;4552;43.422;24.592;2022-12-29T16:41:38;25.55;;;14.35;;
9034;SDS011;4552;43.422;24.592;2022-12-29T16:44:11;18.73;;;11.90;;
9034;SDS011;4552;43.422;24.592;2022-12-29T16:49:52;22.37;;;12.13;;
9034;SDS011;4552;43.422;24.592;2022-12-29T16:52:21;17.67;;;11.27;;
9034;SDS011;4552;43.422;24.592;2022-12-29T16:54:54;22.37;;;12.37;;
9034;SDS011;4552;43.422;24.592;2022-12-29T16:57:27;22.57;;;11.93;;
9034;SDS011;4552;43.422;24.592;2022-12-29T16:59:57;20.17;;;12.10;;
9034;SDS011;4552;43.422;24.592;2022-12-29T17:02:30;21.13;;;12.23;;
9034;SDS011;4552;43.422;24.592;2022-12-29T17:05:01;20.00;;;11.63;;
9034;SDS011;4552;43.422;24.592;2022-12-29T17:07:28;18.13;;;11.23;;
9034;SDS011;4552;43.422;24.592;2022-12-29T17:09:55;21.27;;;11.77;;
9034;SDS011;4552;43.422;24.592;2022-12-29T17:12:22;19.13;;;10.53;;
9034;SDS011;4552;43.422;24.592;2022-12-29T17:14:51;19.67;;;10.70;;
9034;SDS011;4552;43.422;24.592;2022-12-29T17:17:21;21.30;;;12.70;;
9034;SDS011;4552;43.422;24.592;2022-12-29T17:20:02;28.23;;;13.63;;
9034;SDS011;4552;43.422;24.592;2022-12-29T17:22:30;21.53;;;11.53;;
9034;SDS011;4552;43.422;24.592;2022-12-29T17:24:58;19.90;;;11.77;;
9034;SDS011;4552;43.422;24.592;2022-12-29T17:27:29;19.77;;;11.67;;
9034;SDS011;4552;43.422;24.592;2022-12-29T17:30:02;21.00;;;11.23;;
9034;SDS011;4552;43.422;24.592;2022-12-29T17:32:31;20.20;;;10.47;;
9034;SDS011;4552;43.422;24.592;2022-12-29T17:35:02;19.83;;;11.00;;
9034;SDS011;4552;43.422;24.592;2022-12-29T17:37:30;27.10;;;14.60;;
9034;SDS011;4552;43.422;24.592;2022-12-29T17:40:00;32.47;;;18.33;;
9034;SDS011;4552;43.422;24.592;2022-12-29T17:42:28;25.60;;;13.40;;
9034;SDS011;4552;43.422;24.592;2022-12-29T17:45:00;21.13;;;13.17;;
9034;SDS011;4552;43.422;24.592;2022-12-29T17:47:28;25.07;;;14.93;;
9034;SDS011;4552;43.422;24.592;2022-12-29T17:49:58;21.53;;;13.20;;
9034;SDS011;4552;43.422;24.592;2022-12-29T17:52:27;22.87;;;14.07;;
9034;SDS011;4552;43.422;24.592;2022-12-29T17:54:59;25.93;;;14.27;;
9034;SDS011;4552;43.422;24.592;2022-12-29T17:57:28;30.37;;;16.93;;
9034;SDS011;4552;43.422;24.592;2022-12-29T17:59:56;24.83;;;14.80;;
9034;SDS011;4552;43.422;24.592;2022-12-29T18:02:25;31.63;;;17.20;;
9034;SDS011;4552;43.422;24.592;2022-12-29T18:04:54;29.57;;;14.63;;
9034;SDS011;4552;43.422;24.592;2022-12-29T18:07:23;27.17;;;13.47;;
9034;SDS011;4552;43.422;24.592;2022-12-29T18:09:55;25.17;;;13.43;;
9034;SDS011;4552;43.422;24.592;2022-12-29T18:12:29;24.10;;;13.30;;
9034;SDS011;4552;43.422;24.592;2022-12-29T18:15:01;26.93;;;13.60;;
9034;SDS011;4552;43.422;24.592;2022-12-29T18:17:28;28.70;;;14.03;;
9034;SDS011;4552;43.422;24.592;2022-12-29T18:19:55;23.10;;;13.80;;
9034;SDS011;4552;43.422;24.592;2022-12-29T18:22:23;27.10;;;14.53;;
9034;SDS011;4552;43.422;24.592;2022-12-29T18:24:58;25.03;;;13.83;;
9034;SDS011;4552;43.422;24.592;2022-12-29T18:27:26;24.70;;;14.10;;
9034;SDS011;4552;43.422;24.592;2022-12-29T18:30:08;25.70;;;13.63;;
9034;SDS011;4552;43.422;24.592;2022-12-29T18:32:37;24.23;;;13.73;;
9034;SDS011;4552;43.422;24.592;2022-12-29T18:35:16;25.23;;;13.77;;
9034;SDS011;4552;43.422;24.592;2022-12-29T18:38:09;25.47;;;14.20;;
9034;SDS011;4552;43.422;24.592;2022-12-29T18:40:47;25.73;;;13.00;;
9034;SDS011;4552;43.422;24.592;2022-12-29T18:43:19;18.90;;;12.33;;
9034;SDS011;4552;43.422;24.592;2022-12-29T18:45:47;28.67;;;13.60;;
9034;SDS011;4552;43.422;24.592;2022-12-29T18:48:15;21.67;;;11.43;;
9034;SDS011;4552;43.422;24.592;2022-12-29T18:50:45;26.77;;;13.60;;
9034;SDS011;4552;43.422;24.592;2022-12-29T18:53:14;29.43;;;14.77;;
9034;SDS011;4552;43.422;24.592;2022-12-29T18:55:42;23.57;;;15.27;;
9034;SDS011;4552;43.422;24.592;2022-12-29T18:58:12;25.30;;;14.10;;
9034;SDS011;4552;43.422;24.592;2022-12-29T19:00:40;20.90;;;11.17;;
9034;SDS011;4552;43.422;24.592;2022-12-29T19:03:08;21.83;;;11.37;;
9034;SDS011;4552;43.422;24.592;2022-12-29T19:05:38;24.93;;;11.90;;
9034;SDS011;4552;43.422;24.592;2022-12-29T19:08:06;20.33;;;10.50;;
9034;SDS011;4552;43.422;24.592;2022-12-29T19:10:35;28.20;;;14.97;;
9034;SDS011;4552;43.422;24.592;2022-12-29T19:13:03;20.23;;;12.07;;
9034;SDS011;4552;43.422;24.592;2022-12-29T19:15:32;22.07;;;10.37;;
9034;SDS011;4552;43.422;24.592;2022-12-29T19:18:03;17.43;;;9.87;;
9034;SDS011;4552;43.422;24.592;2022-12-29T19:20:35;22.60;;;11.40;;
9034;SDS011;4552;43.422;24.592;2022-12-29T19:23:06;18.57;;;10.23;;
9034;SDS011;4552;43.422;24.592;2022-12-29T19:25:37;23.83;;;10.73;;
9034;SDS011;4552;43.422;24.592;2022-12-29T19:28:06;17.60;;;10.23;;
9034;SDS011;4552;43.422;24.592;2022-12-29T19:30:35;18.00;;;9.20;;
9034;SDS011;4552;43.422;24.592;2022-12-29T19:33:02;18.07;;;10.33;;
9034;SDS011;4552;43.422;24.592;2022-12-29T19:35:29;15.37;;;9.27;;
9034;SDS011;4552;43.422;24.592;2022-12-29T19:37:56;16.47;;;9.30;;
9034;SDS011;4552;43.422;24.592;2022-12-29T19:40:24;20.53;;;9.43;;
9034;SDS011;4552;43.422;24.592;2022-12-29T19:42:53;19.03;;;9.87;;
9034;SDS011;4552;43.422;24.592;2022-12-29T19:45:22;15.50;;;9.63;;
9034;SDS011;4552;43.422;24.592;2022-12-29T19:47:52;19.37;;;10.37;;
9034;SDS011;4552;43.422;24.592;2022-12-29T19:50:20;18.40;;;9.33;;
9034;SDS011;4552;43.422;24.592;2022-12-29T19:52:47;19.07;;;9.47;;
9034;SDS011;4552;43.422;24.592;2022-12-29T19:55:15;17.20;;;9.60;;
9034;SDS011;4552;43.422;24.592;2022-12-29T19:57:42;16.67;;;9.57;;
9034;SDS011;4552;43.422;24.592;2022-12-29T20:00:10;17.47;;;9.93;;
9034;SDS011;4552;43.422;24.592;2022-12-29T20:02:41;16.93;;;8.87;;
9034;SDS011;4552;43.422;24.592;2022-12-29T20:05:10;19.90;;;10.10;;
9034;SDS011;4552;43.422;24.592;2022-12-29T20:07:37;15.27;;;8.93;;
9034;SDS011;4552;43.422;24.592;2022-12-29T20:10:05;15.70;;;9.23;;
9034;SDS011;4552;43.422;24.592;2022-12-29T20:12:33;16.47;;;8.93;;
9034;SDS011;4552;43.422;24.592;2022-12-29T20:15:02;17.00;;;8.80;;
9034;SDS011;4552;43.422;24.592;2022-12-29T20:17:30;21.00;;;10.77;;
9034;SDS011;4552;43.422;24.592;2022-12-29T20:19:57;16.73;;;10.37;;
9034;SDS011;4552;43.422;24.592;2022-12-29T20:22:25;17.77;;;9.33;;
9034;SDS011;4552;43.422;24.592;2022-12-29T20:24:52;18.00;;;9.27;;
9034;SDS011;4552;43.422;24.592;2022-12-29T20:27:20;16.20;;;9.90;;
9034;SDS011;4552;43.422;24.592;2022-12-29T20:29:47;22.07;;;9.20;;
9034;SDS011;4552;43.422;24.592;2022-12-29T20:32:15;19.50;;;10.10;;
9034;SDS011;4552;43.422;24.592;2022-12-29T20:34:44;13.70;;;9.70;;
9034;SDS011;4552;43.422;24.592;2022-12-29T20:37:12;17.70;;;9.70;;
9034;SDS011;4552;43.422;24.592;2022-12-29T20:39:41;23.87;;;9.17;;
9034;SDS011;4552;43.422;24.592;2022-12-29T20:42:09;16.07;;;9.33;;
9034;SDS011;4552;43.422;24.592;2022-12-29T20:44:37;16.33;;;10.13;;
9034;SDS011;4552;43.422;24.592;2022-12-29T20:47:04;16.73;;;9.20;;
9034;SDS011;4552;43.422;24.592;2022-12-29T20:49:32;17.97;;;10.10;;
9034;SDS011;4552;43.422;24.592;2022-12-29T20:52:00;18.83;;;10.00;;
9034;SDS011;4552;43.422;24.592;2022-12-29T20:54:28;22.50;;;13.53;;
9034;SDS011;4552;43.422;24.592;2022-12-29T20:56:57;21.17;;;10.80;;
9034;SDS011;4552;43.422;24.592;2022-12-29T20:59:24;17.90;;;10.80;;
9034;SDS011;4552;43.422;24.592;2022-12-29T21:01:51;20.20;;;10.70;;
9034;SDS011;4552;43.422;24.592;2022-12-29T21:04:18;16.70;;;10.03;;
9034;SDS011;4552;43.422;24.592;2022-12-29T21:06:45;16.97;;;10.17;;
9034;SDS011;4552;43.422;24.592;2022-12-29T21:09:12;16.97;;;10.03;;
9034;SDS011;4552;43.422;24.592;2022-12-29T21:11:39;17.33;;;10.17;;
9034;SDS011;4552;43.422;24.592;2022-12-29T21:14:08;20.67;;;10.57;;
9034;SDS011;4552;43.422;24.592;2022-12-29T21:16:35;16.57;;;10.27;;
9034;SDS011;4552;43.422;24.592;2022-12-29T21:19:02;22.97;;;10.70;;
9034;SDS011;4552;43.422;24.592;2022-12-29T21:21:30;19.03;;;9.97;;
9034;SDS011;4552;43.422;24.592;2022-12-29T21:23:57;20.80;;;10.47;;
9034;SDS011;4552;43.422;24.592;2022-12-29T21:26:29;19.27;;;11.60;;
9034;SDS011;4552;43.422;24.592;2022-12-29T21:28:57;20.87;;;11.37;;
9034;SDS011;4552;43.422;24.592;2022-12-29T21:31:26;20.37;;;11.57;;
9034;SDS011;4552;43.422;24.592;2022-12-29T21:33:54;20.63;;;12.17;;
9034;SDS011;4552;43.422;24.592;2022-12-29T21:36:24;20.20;;;10.77;;
9034;SDS011;4552;43.422;24.592;2022-12-29T21:38:52;21.20;;;12.07;;
9034;SDS011;4552;43.422;24.592;2022-12-29T21:41:20;20.23;;;11.43;;
9034;SDS011;4552;43.422;24.592;2022-12-29T21:43:49;18.03;;;9.97;;
9034;SDS011;4552;43.422;24.592;2022-12-29T21:46:32;17.60;;;9.73;;
9034;SDS011;4552;43.422;24.592;2022-12-29T21:48:59;20.70;;;12.20;;
9034;SDS011;4552;43.422;24.592;2022-12-29T21:51:27;23.13;;;12.67;;
9034;SDS011;4552;43.422;24.592;2022-12-29T21:54:11;24.77;;;12.90;;
9034;SDS011;4552;43.422;24.592;2022-12-29T21:56:56;19.47;;;11.77;;
9034;SDS011;4552;43.422;24.592;2022-12-29T21:59:24;20.80;;;10.87;;
9034;SDS011;4552;43.422;24.592;2022-12-29T22:02:14;18.20;;;9.83;;
9034;SDS011;4552;43.422;24.592;2022-12-29T22:05:03;22.90;;;10.77;;
9034;SDS011;4552;43.422;24.592;2022-12-29T22:07:48;17.60;;;9.97;;
9034;SDS011;4552;43.422;24.592;2022-12-29T22:10:33;16.10;;;10.03;;
9034;SDS011;4552;43.422;24.592;2022-12-29T22:13:22;17.37;;;10.13;;
9034;SDS011;4552;43.422;24.592;2022-12-29T22:15:50;29.37;;;12.73;;
9034;SDS011;4552;43.422;24.592;2022-12-29T22:18:18;16.77;;;9.53;;
9034;SDS011;4552;43.422;24.592;2022-12-29T22:20:46;14.20;;;8.90;;
9034;SDS011;4552;43.422;24.592;2022-12-29T22:23:13;17.23;;;9.33;;
9034;SDS011;4552;43.422;24.592;2022-12-29T22:25:40;13.43;;;8.87;;
9034;SDS011;4552;43.422;24.592;2022-12-29T22:28:08;17.00;;;9.00;;
9034;SDS011;4552;43.422;24.592;2022-12-29T22:30:37;16.13;;;7.73;;
9034;SDS011;4552;43.422;24.592;2022-12-29T22:33:05;14.83;;;8.90;;
9034;SDS011;4552;43.422;24.592;2022-12-29T22:35:34;22.47;;;9.20;;
9034;SDS011;4552;43.422;24.592;2022-12-29T22:38:02;15.73;;;9.33;;
9034;SDS011;4552;43.422;24.592;2022-12-29T22:40:29;13.13;;;8.13;;
9034;SDS011;4552;43.422;24.592;2022-12-29T22:42:57;17.90;;;9.30;;
9034;SDS011;4552;43.422;24.592;2022-12-29T22:45:24;17.40;;;9.03;;
9034;SDS011;4552;43.422;24.592;2022-12-29T22:47:51;15.23;;;8.87;;
9034;SDS011;4552;43.422;24.592;2022-12-29T22:50:19;22.33;;;10.73;;
9034;SDS011;4552;43.422;24.592;2022-12-29T22:52:47;18.20;;;10.37;;
9034;SDS011;4552;43.422;24.592;2022-12-29T22:55:15;19.33;;;12.07;;
9034;SDS011;4552;43.422;24.592;2022-12-29T22:57:42;23.10;;;12.87;;
9034;SDS011;4552;43.422;24.592;2022-12-29T23:00:09;29.80;;;16.83;;
9034;SDS011;4552;43.422;24.592;2022-12-29T23:02:37;33.23;;;15.93;;
9034;SDS011;4552;43.422;24.592;2022-12-29T23:05:04;36.33;;;17.80;;
9034;SDS011;4552;43.422;24.592;2022-12-29T23:07:32;30.10;;;17.03;;
9034;SDS011;4552;43.422;24.592;2022-12-29T23:10:02;28.77;;;17.70;;
9034;SDS011;4552;43.422;24.592;2022-12-29T23:12:31;27.77;;;16.17;;
9034;SDS011;4552;43.422;24.592;2022-12-29T23:15:01;28.97;;;15.43;;
9034;SDS011;4552;43.422;24.592;2022-12-29T23:17:28;30.87;;;16.47;;
9034;SDS011;4552;43.422;24.592;2022-12-29T23:19:55;26.27;;;15.43;;